createdAt,value
2022-09-27T00:01:03.653Z,56.48
2022-09-27T00:03:31.625Z,56.47
2022-09-27T00:06:05.293Z,56.42
2022-09-27T00:08:33.502Z,56.66
2022-09-27T00:11:02.106Z,56.41
2022-09-27T00:13:31.386Z,56.71
2022-09-27T00:15:59.432Z,56.41
2022-09-27T00:18:27.381Z,56.63
2022-09-27T00:20:55.091Z,56.68
2022-09-27T00:23:22.853Z,56.69
2022-09-27T00:25:57.452Z,56.33
2022-09-27T00:28:27.617Z,56.89
2022-09-27T00:31:10.788Z,56.90
2022-09-27T00:33:39.559Z,56.82
2022-09-27T00:36:11.742Z,56.49
2022-09-27T00:38:46.214Z,56.68
2022-09-27T00:41:21.600Z,56.72
2022-09-27T00:43:52.849Z,56.86
2022-09-27T00:46:25.263Z,56.61
2022-09-27T00:49:06.242Z,56.58
2022-09-27T00:51:40.521Z,56.65
2022-09-27T00:54:15.659Z,56.44
2022-09-27T00:56:49.458Z,56.72
2022-09-27T00:59:27.710Z,56.85
2022-09-27T01:01:58.943Z,56.65
2022-09-27T01:04:38.259Z,56.65
2022-09-27T01:07:06.489Z,56.83
2022-09-27T01:09:35.025Z,56.95
2022-09-27T01:12:07.104Z,57.02
2022-09-27T01:14:42.725Z,56.80
2022-09-27T01:17:21.243Z,56.71
2022-09-27T01:20:13.280Z,56.79
2022-09-27T01:22:45.981Z,56.89
2022-09-27T01:25:36.763Z,57.04
2022-09-27T01:28:17.771Z,56.91
2022-09-27T01:30:49.284Z,57.04
2022-09-27T01:33:34.976Z,57.19
2022-09-27T01:36:27.847Z,56.73
2022-09-27T01:39:12.311Z,56.89
2022-09-27T01:41:50.369Z,57.09
2022-09-27T01:44:23.497Z,57.17
2022-09-27T01:47:03.355Z,56.89
2022-09-27T01:49:37.226Z,56.97
2022-09-27T01:52:09.326Z,56.98
2022-09-27T01:54:39.344Z,56.88
2022-09-27T01:57:07.744Z,56.98
2022-09-27T01:59:37.978Z,56.79
2022-09-27T02:02:12.489Z,56.95
2022-09-27T02:04:41.457Z,57.13
2022-09-27T02:07:16.757Z,57.16
2022-09-27T02:09:48.843Z,57.21
2022-09-27T02:12:22.667Z,57.12
2022-09-27T02:14:54.323Z,57.22
2022-09-27T02:17:30.169Z,57.23
2022-09-27T02:20:04.528Z,57.05
2022-09-27T02:22:35.116Z,57.33
2022-09-27T02:25:07.341Z,57.31
2022-09-27T02:27:37.194Z,57.21
2022-09-27T02:30:15.926Z,57.01
2022-09-27T02:32:48.558Z,57.15
2022-09-27T02:35:21.754Z,57.07
2022-09-27T02:37:58.607Z,57.15
2022-09-27T02:40:41.861Z,57.10
2022-09-27T02:43:10.278Z,57.32
2022-09-27T02:45:44.186Z,57.32
2022-09-27T02:48:21.148Z,57.46
2022-09-27T02:51:07.781Z,57.20
2022-09-27T02:53:41.097Z,57.32
2022-09-27T02:56:11.920Z,57.23
2022-09-27T02:58:47.316Z,57.19
2022-09-27T03:01:18.960Z,57.35
2022-09-27T03:03:54.105Z,57.38
2022-09-27T03:06:28.105Z,57.43
2022-09-27T03:08:57.108Z,57.15
2022-09-27T03:11:25.362Z,57.43
2022-09-27T03:14:07.912Z,57.36
2022-09-27T03:16:41.933Z,57.36
2022-09-27T03:19:11.734Z,57.58
2022-09-27T03:21:40.222Z,57.42
2022-09-27T03:24:08.486Z,57.29
2022-09-27T03:26:36.566Z,57.44
2022-09-27T03:29:04.910Z,57.20
2022-09-27T03:31:35.979Z,57.43
2022-09-27T03:34:07.343Z,57.40
2022-09-27T03:36:39.908Z,57.46
2022-09-27T03:39:09.623Z,57.46
2022-09-27T03:41:40.048Z,57.46
2022-09-27T03:44:08.576Z,57.32
2022-09-27T03:46:37.918Z,57.50
2022-09-27T03:49:06.112Z,57.23
2022-09-27T03:51:37.952Z,57.28
2022-09-27T03:54:14.235Z,57.39
2022-09-27T03:56:42.411Z,57.38
2022-09-27T03:59:33.880Z,57.42
2022-09-27T04:02:02.174Z,57.55
2022-09-27T04:04:30.697Z,57.57
2022-09-27T04:07:09.469Z,57.56
2022-09-27T04:09:44.742Z,57.57
2022-09-27T04:12:13.114Z,57.57
2022-09-27T04:14:41.575Z,57.43
2022-09-27T04:17:09.837Z,57.53
2022-09-27T04:19:42.991Z,57.42
2022-09-27T04:22:12.362Z,57.59
2022-09-27T04:24:47.323Z,57.63
2022-09-27T04:27:18.775Z,57.56
2022-09-27T04:29:55.446Z,57.65
2022-09-27T04:32:44.948Z,57.54
2022-09-27T04:35:35.785Z,57.59
2022-09-27T04:38:19.969Z,57.64
2022-09-27T04:40:49.322Z,57.40
2022-09-27T04:43:17.069Z,57.28
2022-09-27T04:45:44.942Z,57.53
2022-09-27T04:48:12.754Z,57.66
2022-09-27T04:50:41.251Z,57.63
2022-09-27T04:53:09.116Z,57.67
2022-09-27T04:55:36.792Z,57.50
2022-09-27T04:58:06.094Z,57.68
2022-09-27T05:00:33.786Z,57.59
2022-09-27T05:03:01.579Z,57.81
2022-09-27T05:05:29.418Z,57.75
2022-09-27T05:07:57.118Z,57.78
2022-09-27T05:10:24.763Z,57.80
2022-09-27T05:12:52.446Z,57.74
2022-09-27T05:15:21.450Z,57.94
2022-09-27T05:17:49.161Z,57.91
2022-09-27T05:20:16.964Z,58.10
2022-09-27T05:22:44.679Z,58.05
2022-09-27T05:25:12.384Z,58.02
2022-09-27T05:27:40.119Z,58.25
2022-09-27T05:30:08.530Z,58.13
2022-09-27T05:32:37.800Z,58.09
2022-09-27T05:35:06.244Z,58.16
2022-09-27T05:37:34.224Z,58.44
2022-09-27T05:40:12.213Z,58.08
2022-09-27T05:42:50.464Z,58.25
2022-09-27T05:45:18.128Z,58.37
2022-09-27T05:47:54.651Z,58.43
2022-09-27T05:50:22.315Z,58.13
2022-09-27T05:52:50.234Z,58.18
2022-09-27T05:55:17.900Z,58.02
2022-09-27T05:57:57.406Z,58.45
2022-09-27T06:00:25.989Z,58.13
2022-09-27T06:02:58.899Z,58.16
2022-09-27T06:05:27.564Z,58.13
2022-09-27T06:07:59.511Z,58.33
2022-09-27T06:10:27.270Z,58.17
2022-09-27T06:12:55.954Z,58.23
2022-09-27T06:15:23.711Z,58.25
2022-09-27T06:17:51.394Z,58.92
2022-09-27T06:20:20.716Z,59.47
2022-09-27T06:22:48.440Z,60.12
2022-09-27T06:25:16.814Z,60.43
2022-09-27T06:27:44.537Z,60.43
2022-09-27T06:30:15.817Z,60.63
2022-09-27T06:32:45.867Z,60.97
2022-09-27T06:35:13.562Z,61.14
2022-09-27T06:37:42.916Z,61.98
2022-09-27T06:40:11.145Z,62.29
2022-09-27T06:42:40.359Z,62.13
2022-09-27T06:45:08.804Z,62.15
2022-09-27T06:47:36.862Z,62.09
2022-09-27T06:50:05.952Z,62.07
2022-09-27T06:52:33.662Z,62.28
2022-09-27T06:55:02.666Z,60.39
2022-09-27T06:57:56.397Z,60.42
2022-09-27T07:00:27.592Z,59.30
2022-09-27T07:02:58.520Z,59.62
2022-09-27T07:05:26.708Z,59.98
2022-09-27T07:07:57.628Z,59.88
2022-09-27T07:10:27.405Z,60.02
2022-09-27T07:12:55.138Z,59.92
2022-09-27T07:15:23.290Z,59.96
2022-09-27T07:17:57.243Z,59.26
2022-09-27T07:20:25.001Z,59.04
2022-09-27T07:22:52.728Z,59.27
2022-09-27T07:25:20.400Z,59.82
2022-09-27T07:27:49.720Z,60.86
2022-09-27T07:30:17.522Z,60.93
2022-09-27T07:32:45.264Z,61.22
2022-09-27T07:35:15.086Z,61.47
2022-09-27T07:37:42.836Z,61.49
2022-09-27T07:40:10.936Z,61.41
2022-09-27T07:42:39.255Z,61.46
2022-09-27T07:45:09.844Z,61.82
2022-09-27T07:47:38.737Z,62.17
2022-09-27T07:50:06.615Z,62.18
2022-09-27T07:52:40.229Z,61.66
2022-09-27T07:55:08.788Z,62.21
2022-09-27T07:57:36.488Z,62.22
2022-09-27T08:00:04.689Z,62.24
2022-09-27T08:02:33.931Z,62.32
2022-09-27T08:05:01.672Z,62.31
2022-09-27T08:07:29.959Z,61.67
2022-09-27T08:09:57.606Z,61.67
2022-09-27T08:12:25.354Z,61.11
2022-09-27T08:14:53.148Z,60.82
2022-09-27T08:17:20.846Z,61.12
2022-09-27T08:19:49.933Z,61.13
2022-09-27T08:22:17.638Z,61.30
2022-09-27T08:24:45.387Z,60.94
2022-09-27T08:27:13.425Z,61.10
2022-09-27T08:29:42.075Z,61.03
2022-09-27T08:32:09.827Z,60.96
2022-09-27T08:34:37.527Z,60.89
2022-09-27T08:37:06.525Z,60.89
2022-09-27T08:39:34.211Z,61.07
2022-09-27T08:42:05.265Z,61.17
2022-09-27T08:47:00.607Z,61.30
2022-09-27T08:49:29.868Z,61.25
2022-09-27T08:51:57.528Z,61.27
2022-09-27T08:54:29.984Z,61.10
2022-09-27T08:57:00.027Z,61.28
2022-09-27T08:59:29.340Z,60.89
2022-09-27T09:01:57.051Z,61.14
2022-09-27T09:04:27.424Z,61.36
2022-09-27T09:06:59.917Z,61.12
2022-09-27T09:09:32.585Z,60.69
2022-09-27T09:12:19.738Z,60.71
2022-09-27T09:14:57.653Z,60.89
2022-09-27T09:17:30.348Z,60.84
2022-09-27T09:20:16.798Z,60.55
2022-09-27T09:22:54.131Z,60.68
2022-09-27T09:25:25.656Z,60.58
2022-09-27T09:28:02.273Z,60.57
2022-09-27T09:30:33.435Z,60.42
2022-09-27T09:33:10.111Z,60.71
2022-09-27T09:35:39.931Z,60.73
2022-09-27T09:38:10.559Z,60.04
2022-09-27T09:40:41.491Z,60.43
2022-09-27T09:43:11.780Z,60.18
2022-09-27T09:45:41.691Z,60.41
2022-09-27T09:48:12.291Z,60.26
2022-09-27T09:50:42.338Z,60.49
2022-09-27T09:53:12.909Z,60.28
2022-09-27T09:55:42.565Z,60.17
2022-09-27T09:58:20.132Z,60.14
2022-09-27T10:00:47.972Z,59.48
2022-09-27T10:03:15.782Z,59.07
2022-09-27T10:05:44.361Z,59.03
2022-09-27T10:08:14.145Z,59.16
2022-09-27T10:10:43.216Z,59.16
2022-09-27T10:13:11.060Z,58.80
2022-09-27T10:15:38.716Z,58.69
2022-09-27T10:18:06.519Z,58.71
2022-09-27T10:20:35.146Z,58.24
2022-09-27T10:23:06.205Z,57.99
2022-09-27T10:25:48.372Z,57.96
2022-09-27T10:28:37.209Z,57.63
2022-09-27T10:31:06.167Z,57.34
2022-09-27T10:33:33.870Z,57.53
2022-09-27T10:36:02.057Z,57.20
2022-09-27T10:38:31.658Z,56.98
2022-09-27T10:41:17.957Z,56.74
2022-09-27T10:43:45.839Z,56.75
2022-09-27T10:46:26.662Z,56.83
2022-09-27T10:49:09.318Z,56.64
2022-09-27T10:51:37.010Z,56.76
2022-09-27T10:54:04.828Z,56.74
2022-09-27T10:56:34.810Z,56.64
2022-09-27T10:59:02.961Z,57.00
2022-09-27T11:01:40.288Z,56.55
2022-09-27T11:04:08.155Z,56.34
2022-09-27T11:06:38.248Z,56.27
2022-09-27T11:09:23.278Z,56.37
2022-09-27T11:11:52.531Z,56.19
2022-09-27T11:14:21.944Z,56.65
2022-09-27T11:17:05.908Z,56.84
2022-09-27T11:19:44.606Z,56.86
2022-09-27T11:22:20.599Z,56.68
2022-09-27T11:24:55.750Z,56.62
2022-09-27T11:27:29.525Z,56.88
2022-09-27T11:30:04.519Z,56.97
2022-09-27T11:32:39.099Z,56.88
2022-09-27T11:35:15.508Z,56.74
2022-09-27T11:37:46.285Z,56.94
2022-09-27T11:40:23.577Z,57.01
2022-09-27T11:43:11.774Z,55.86
2022-09-27T11:49:02.947Z,56.59
2022-09-27T11:51:34.420Z,57.04
2022-09-27T11:54:08.046Z,58.78
2022-09-27T11:56:41.312Z,57.21
2022-09-27T11:59:31.742Z,57.86
2022-09-27T12:02:02.604Z,58.76
2022-09-27T12:04:52.974Z,59.68
2022-09-27T12:07:22.465Z,60.05
2022-09-27T12:09:51.926Z,60.62
2022-09-27T12:12:21.496Z,61.18
2022-09-27T12:14:51.632Z,61.05
2022-09-27T12:17:19.844Z,61.10
2022-09-27T12:19:50.432Z,61.31
2022-09-27T12:22:34.614Z,61.31
2022-09-27T12:25:03.560Z,61.64
2022-09-27T12:27:36.277Z,61.76
2022-09-27T12:30:06.452Z,61.96
2022-09-27T12:32:35.143Z,61.75
2022-09-27T12:35:04.764Z,62.08
2022-09-27T12:37:33.950Z,62.45
2022-09-27T12:40:02.903Z,62.41
2022-09-27T12:42:32.956Z,62.46
2022-09-27T12:45:00.647Z,62.12
2022-09-27T12:47:39.545Z,61.77
2022-09-27T12:50:11.149Z,61.79
2022-09-27T12:52:41.256Z,61.63
2022-09-27T12:55:22.265Z,62.01
2022-09-27T12:57:52.919Z,61.99
2022-09-27T13:00:21.954Z,61.56
2022-09-27T13:03:32.492Z,61.62
2022-09-27T13:06:25.818Z,61.46
2022-09-27T13:09:04.457Z,59.81
2022-09-27T13:11:40.721Z,60.83
2022-09-27T13:14:11.515Z,60.76
2022-09-27T13:16:43.647Z,60.84
2022-09-27T13:19:39.384Z,61.08
2022-09-27T13:22:08.720Z,61.12
2022-09-27T13:24:48.149Z,61.09
2022-09-27T13:27:38.364Z,60.80
2022-09-27T13:30:48.596Z,60.82
2022-09-27T13:33:40.097Z,61.23
2022-09-27T13:36:28.369Z,61.06
2022-09-27T13:39:15.798Z,61.13
2022-09-27T13:41:59.031Z,61.26
2022-09-27T13:44:27.542Z,61.25
2022-09-27T13:46:58.260Z,61.06
2022-09-27T13:49:29.218Z,60.80
2022-09-27T13:51:58.209Z,61.13
2022-09-27T13:54:41.971Z,61.16
2022-09-27T13:57:43.846Z,61.09
2022-09-27T14:00:12.869Z,61.49
2022-09-27T14:02:43.183Z,61.17
2022-09-27T14:05:11.071Z,61.42
2022-09-27T14:07:42.417Z,61.37
2022-09-27T14:10:14.250Z,61.53
2022-09-27T14:12:41.939Z,61.52
2022-09-27T14:15:10.535Z,61.75
2022-09-27T14:17:45.771Z,61.69
2022-09-27T14:20:33.030Z,61.31
2022-09-27T14:23:00.883Z,61.33
2022-09-27T14:25:29.902Z,61.49
2022-09-27T14:27:58.562Z,61.31
2022-09-27T14:30:27.762Z,61.00
2022-09-27T14:32:58.445Z,61.16
2022-09-27T14:35:40.514Z,61.14
2022-09-27T14:38:33.138Z,61.32
2022-09-27T14:41:02.522Z,61.32
2022-09-27T14:43:30.726Z,61.18
2022-09-27T14:45:59.254Z,61.32
2022-09-27T14:48:29.103Z,61.29
2022-09-27T14:51:04.770Z,61.31
2022-09-27T14:53:34.127Z,61.16
2022-09-27T14:56:03.571Z,61.16
2022-09-27T14:58:46.743Z,61.30
2022-09-27T15:01:16.533Z,61.53
2022-09-27T15:03:44.798Z,61.35
2022-09-27T15:06:12.617Z,61.35
2022-09-27T15:08:40.312Z,61.64
2022-09-27T15:11:10.783Z,61.54
2022-09-27T15:13:38.567Z,61.29
2022-09-27T15:16:09.203Z,61.41
2022-09-27T15:18:43.795Z,61.48
2022-09-27T15:21:12.407Z,61.27
2022-09-27T15:23:41.448Z,61.36
2022-09-27T15:26:12.857Z,61.33
2022-09-27T15:28:43.732Z,61.34
2022-09-27T15:31:11.460Z,61.33
2022-09-27T15:33:39.206Z,61.44
2022-09-27T15:36:08.014Z,61.34
2022-09-27T15:38:35.887Z,61.66
2022-09-27T15:41:15.065Z,61.40
2022-09-27T15:43:45.533Z,61.53
2022-09-27T15:46:35.106Z,61.21
2022-09-27T15:49:27.936Z,61.31
2022-09-27T15:51:56.056Z,61.20
2022-09-27T15:54:24.903Z,61.24
2022-09-27T15:56:56.007Z,61.32
2022-09-27T15:59:25.405Z,61.18
2022-09-27T16:01:56.047Z,61.50
2022-09-27T16:04:23.856Z,61.50
2022-09-27T16:06:51.761Z,61.78
2022-09-27T16:09:19.786Z,61.56
2022-09-27T16:11:47.897Z,61.87
2022-09-27T16:14:18.553Z,61.47
2022-09-27T16:16:47.282Z,61.77
2022-09-27T16:19:15.018Z,61.71
2022-09-27T16:21:43.792Z,61.93
2022-09-27T16:24:11.640Z,61.78
2022-09-27T16:26:39.540Z,61.60
2022-09-27T16:29:10.476Z,61.59
2022-09-27T16:31:39.931Z,61.90
2022-09-27T16:34:07.720Z,61.80
2022-09-27T16:36:36.021Z,61.76
2022-09-27T16:39:05.790Z,61.73
2022-09-27T16:41:34.077Z,61.84
2022-09-27T16:44:07.099Z,61.50
2022-09-27T16:46:35.610Z,61.69
2022-09-27T16:49:04.660Z,61.69
2022-09-27T16:51:49.663Z,61.66
2022-09-27T16:54:17.934Z,61.63
2022-09-27T16:56:46.028Z,61.86
2022-09-27T16:59:14.088Z,61.71
2022-09-27T17:01:41.830Z,61.69
2022-09-27T17:04:10.993Z,61.70
2022-09-27T17:06:38.774Z,61.90
2022-09-27T17:09:06.519Z,61.75
2022-09-27T17:11:34.204Z,61.59
2022-09-27T17:14:01.883Z,61.99
2022-09-27T17:16:29.622Z,61.85
2022-09-27T17:18:57.408Z,61.85
2022-09-27T17:21:26.410Z,61.63
2022-09-27T17:23:54.320Z,61.71
2022-09-27T17:26:22.569Z,61.85
2022-09-27T17:28:50.428Z,61.63
2022-09-27T17:31:18.986Z,61.60
2022-09-27T17:33:47.405Z,61.79
2022-09-27T17:36:17.311Z,61.84
2022-09-27T17:38:46.596Z,61.81
2022-09-27T17:41:15.108Z,61.49
2022-09-27T17:43:48.876Z,61.69
2022-09-27T17:46:17.300Z,61.80
2022-09-27T17:49:02.496Z,61.51
2022-09-27T17:51:31.272Z,61.57
2022-09-27T17:54:00.396Z,61.58
2022-09-27T17:56:28.056Z,61.47
2022-09-27T17:58:56.650Z,61.43
2022-09-27T18:01:25.242Z,61.68
2022-09-27T18:03:54.263Z,61.23
2022-09-27T18:06:21.986Z,61.45
2022-09-27T18:08:49.715Z,61.33
2022-09-27T18:11:19.582Z,61.49
2022-09-27T18:13:47.277Z,61.29
2022-09-27T18:16:16.662Z,61.75
2022-09-27T18:18:45.092Z,61.41
2022-09-27T18:21:14.223Z,61.24
2022-09-27T18:23:42.159Z,61.63
2022-09-27T18:26:10.300Z,61.35
2022-09-27T18:28:39.977Z,61.46
2022-09-27T18:31:09.222Z,61.29
2022-09-27T18:33:37.380Z,61.76
2022-09-27T18:36:06.021Z,61.35
2022-09-27T18:38:33.948Z,61.49
2022-09-27T18:41:06.516Z,61.21
2022-09-27T18:43:38.588Z,61.33
2022-09-27T18:46:33.845Z,61.26
2022-09-27T18:48:56.587Z,61.28
2022-09-27T18:51:26.442Z,61.54
2022-09-27T18:53:55.247Z,61.20
2022-09-27T18:56:22.937Z,61.19
2022-09-27T18:58:51.163Z,61.44
2022-09-27T19:01:20.711Z,61.46
2022-09-27T19:03:48.974Z,61.30
2022-09-27T19:06:17.671Z,61.28
2022-09-27T19:08:45.443Z,61.35
2022-09-27T19:11:14.019Z,61.20
2022-09-27T19:13:50.283Z,61.40
2022-09-27T19:16:21.690Z,61.31
2022-09-27T19:18:49.559Z,61.28
2022-09-27T19:21:18.890Z,61.28
2022-09-27T19:23:46.652Z,61.33
2022-09-27T19:26:15.278Z,61.20
2022-09-27T19:28:43.813Z,61.30
2022-09-27T19:31:13.401Z,61.15
2022-09-27T19:33:42.486Z,61.35
2022-09-27T19:36:11.349Z,61.10
2022-09-27T19:38:39.295Z,61.26
2022-09-27T19:41:07.953Z,61.32
2022-09-27T19:43:35.640Z,61.23
2022-09-27T19:46:06.550Z,61.07
2022-09-27T19:48:34.366Z,61.03
2022-09-27T19:51:03.468Z,61.11
2022-09-27T19:53:32.367Z,61.04
2022-09-27T19:56:00.298Z,61.08
2022-09-27T19:58:28.412Z,61.03
2022-09-27T20:01:00.668Z,60.94
2022-09-27T20:03:28.683Z,61.08
2022-09-27T20:05:56.524Z,61.21
2022-09-27T20:08:25.588Z,60.94
2022-09-27T20:10:57.176Z,61.06
2022-09-27T20:13:24.975Z,61.16
2022-09-27T20:15:54.671Z,60.82
2022-09-27T20:18:22.506Z,60.93
2022-09-27T20:20:50.203Z,60.98
2022-09-27T20:23:20.041Z,61.18
2022-09-27T20:25:49.332Z,60.98
2022-09-27T20:28:17.016Z,60.82
2022-09-27T20:30:44.693Z,61.21
2022-09-27T20:33:29.790Z,60.99
2022-09-27T20:35:58.491Z,61.01
2022-09-27T20:38:26.215Z,61.10
2022-09-27T20:40:55.890Z,60.89
2022-09-27T20:43:26.434Z,61.07
2022-09-27T20:45:54.136Z,61.02
2022-09-27T20:48:21.826Z,61.26
2022-09-27T20:50:49.487Z,61.01
2022-09-27T20:53:17.168Z,60.87
2022-09-27T20:55:44.838Z,60.97
2022-09-27T20:58:13.842Z,61.04
2022-09-27T21:00:41.569Z,60.88
2022-09-27T21:03:09.297Z,61.00
2022-09-27T21:05:36.968Z,60.79
2022-09-27T21:08:04.673Z,60.94
2022-09-27T21:10:32.411Z,61.07
2022-09-27T21:13:00.123Z,60.65
2022-09-27T21:15:29.191Z,60.96
2022-09-27T21:17:57.741Z,60.81
2022-09-27T21:20:25.699Z,60.83
2022-09-27T21:22:53.395Z,60.77
2022-09-27T21:25:21.070Z,60.76
2022-09-27T21:27:53.405Z,60.90
2022-09-27T21:30:21.346Z,60.51
2022-09-27T21:32:53.785Z,60.54
2022-09-27T21:35:21.604Z,60.79
2022-09-27T21:37:49.310Z,60.78
2022-09-27T21:40:17.387Z,60.67
2022-09-27T21:42:45.157Z,60.73
2022-09-27T21:45:12.842Z,60.50
2022-09-27T21:47:40.546Z,60.43
2022-09-27T21:50:10.292Z,60.46
2022-09-27T21:52:37.990Z,60.84
2022-09-27T21:55:07.162Z,60.67
2022-09-27T21:57:35.279Z,60.50
2022-09-27T22:00:03.280Z,60.59
2022-09-27T22:02:31.077Z,60.51
2022-09-27T22:04:59.618Z,60.41
2022-09-27T22:07:28.666Z,60.31
2022-09-27T22:09:56.849Z,60.22
2022-09-27T22:12:24.604Z,60.67
2022-09-27T22:14:52.275Z,60.38
2022-09-27T22:17:19.999Z,60.26
2022-09-27T22:19:47.840Z,60.30
2022-09-27T22:22:15.545Z,60.36
2022-09-27T22:24:44.571Z,60.68
2022-09-27T22:27:12.272Z,60.33
2022-09-27T22:29:39.935Z,60.12
2022-09-27T22:32:07.636Z,60.51
2022-09-27T22:34:35.312Z,60.36
2022-09-27T22:37:03.123Z,60.03
2022-09-27T22:39:30.830Z,60.12
2022-09-27T22:41:59.941Z,60.12
2022-09-27T22:44:27.592Z,60.18
2022-09-27T22:46:55.657Z,59.94
2022-09-27T22:49:24.203Z,60.11
2022-09-27T22:51:51.894Z,59.93
2022-09-27T22:54:20.048Z,59.88
2022-09-27T22:56:47.778Z,60.07
2022-09-27T22:59:17.810Z,60.09
2022-09-27T23:01:45.712Z,59.99
2022-09-27T23:04:14.104Z,59.96
2022-09-27T23:06:42.783Z,60.12
2022-09-27T23:09:10.847Z,60.02
2022-09-27T23:11:38.576Z,59.85
2022-09-27T23:14:06.406Z,59.80
2022-09-27T23:16:35.920Z,59.87
2022-09-27T23:19:03.849Z,59.67
2022-09-27T23:21:32.056Z,59.83
2022-09-27T23:24:01.534Z,59.55
2022-09-27T23:26:29.480Z,59.69
2022-09-27T23:28:57.786Z,59.95
2022-09-27T23:31:25.665Z,59.67
2022-09-27T23:33:54.685Z,59.52
2022-09-27T23:36:24.018Z,59.34
2022-09-27T23:38:51.714Z,59.71
2022-09-27T23:41:19.601Z,59.60
2022-09-27T23:43:48.429Z,59.53
2022-09-27T23:46:16.128Z,59.43
2022-09-27T23:48:44.588Z,59.44
2022-09-27T23:51:13.679Z,59.87
2022-09-27T23:53:41.480Z,59.32
2022-09-27T23:56:09.996Z,59.54
2022-09-27T23:58:38.260Z,59.42
